メインページ
METAR-TAF:

METAR-TAF

空港 :

オタワ・マクドナルド・カルティエ国際空港

オタワ, オンタリオ州, カナダ

緯度: 45-19N, 経度: 075-40W, 海抜: 116m

現時点の気象観測

当レポートは55分前の17:00(UTC)に作成
南/南西の風 7kt、から西/南西の間で変化する
気温 31°C
湿度 52%
気圧 1018 hPa
視程: 24.1km
高度5000ftの雲は散在している
高度17000ftの千切れ雲あり
高度25000ftの千切れ雲あり

METAR: CYOW 261700Z 21007KT 170V240 15SM SCT050 BKN170 BKN250 31/20 A3007 RMK CU3AC2CI1 CI TR SLP184 DENSITY ALT 2200FT

時間: 13:55 (17:55 UTC)

予報

当レポートは17分前の17:38(UTC)に作成
予報は26日の 18時(UTC)から 27日の 18時(UTC)まで有効
西/南西の風 10kt
視程: 10km
高度5000ftの雲は散在している
26日の 19時(UTC)から 27日の 01時(UTC)まで一時的に
視程: 10km
高度5000ftの千切れ雲あり
弱いにわか雨
確率 30%
26日の 19時(UTC)から 26日の 23時(UTC)まで
変向風 15kt、最大25ktの突風を伴う
視程: 4.8km
高度3000ftの千切れ雲あり, 積乱雲.
激しい雷雨, 雨
27日の 0200時(UTC)から
変向風 3kt
視程: 10km
高度24000ftの雲はほとんどない
27日の 1400時(UTC)から
南/南西の風 10kt
視程: 10km
高度6000ftの雲は散在している
高度24000ftの雲は散在している

TAF: CYOW 261738Z 2618/2718 24010KT P6SM SCT050 TEMPO 2619/2701 P6SM -SHRA BKN050 PROB30 2619/2623 VRB15G25KT 3SM TSRA BKN030CB FM270200 VRB03KT P6SM FEW240 FM271400 21010KT P6SM SCT060 SCT240 RMK NXT FCST BY 262100Z

4,000以上の空港の気象観測と天気予報(METAR報とTAF報)

利用可能な観測所は地図上に黄色い丸と赤い丸で示す。

丸の上にカーソルを重ねると観測所名を参照できる。

次にクリックすると気象観測と天気予報を参照できる。

マップの切り替え:黒色「×」印の緑ボタンをクリックして拡大、「-」印の緑ボタンをクリックして縮小、緑色の三角印をクリックして隣りの地図に切り替え


METAR-TAF: